Terminal Aerodrome Forecast
Issued by NWS

Home | Current Version | Previous Version | Text Only | Print | Product List | Glossary On
Versions: 1 2 3 4 5 6 7 8 9 10 11 12 13 14 15 16 17 18 19
697
FTUS46 KLOX 271314 AAA
TAFBUR
TAF AMD
KBUR 271314Z 2713/2812 VRB03KT P6SM SCT009
     FM271400 VRB03KT P6SM BKN009
     FM271700 VRB03KT P6SM SKC
     FM272000 18010KT P6SM SKC
     FM280400 12007KT P6SM SKC
     FM281000 VRB03KT P6SM OVC010=

USA.gov is the U.S. government's official web portal to all federal, state and local government web resources and services.